sensor_id;sensor_type;location;lat;lon;timestamp;P1;durP1;ratioP1;P2;durP2;ratioP2
41799;SDS011;27468;47.460;19.034;2022-09-01T00:01:49;4.45;;;3.30;;
41799;SDS011;27468;47.460;19.034;2022-09-01T00:04:17;4.53;;;3.50;;
41799;SDS011;27468;47.460;19.034;2022-09-01T00:06:44;5.95;;;3.40;;
41799;SDS011;27468;47.460;19.034;2022-09-01T00:09:13;5.05;;;3.28;;
41799;SDS011;27468;47.460;19.034;2022-09-01T00:11:42;4.47;;;3.47;;
41799;SDS011;27468;47.460;19.034;2022-09-01T00:14:10;4.00;;;3.17;;
41799;SDS011;27468;47.460;19.034;2022-09-01T00:16:36;5.95;;;3.30;;
41799;SDS011;27468;47.460;19.034;2022-09-01T00:19:02;4.60;;;3.15;;
41799;SDS011;27468;47.460;19.034;2022-09-01T00:21:30;4.28;;;3.13;;
41799;SDS011;27468;47.460;19.034;2022-09-01T00:23:59;3.75;;;3.20;;
41799;SDS011;27468;47.460;19.034;2022-09-01T00:26:25;5.13;;;3.03;;
41799;SDS011;27468;47.460;19.034;2022-09-01T00:28:50;5.78;;;3.63;;
41799;SDS011;27468;47.460;19.034;2022-09-01T00:31:16;3.70;;;2.97;;
41799;SDS011;27468;47.460;19.034;2022-09-01T00:33:43;4.65;;;3.17;;
41799;SDS011;27468;47.460;19.034;2022-09-01T00:36:09;5.03;;;3.00;;
41799;SDS011;27468;47.460;19.034;2022-09-01T00:38:34;5.63;;;3.53;;
41799;SDS011;27468;47.460;19.034;2022-09-01T00:41:00;5.35;;;3.60;;
41799;SDS011;27468;47.460;19.034;2022-09-01T00:43:39;3.88;;;3.47;;
41799;SDS011;27468;47.460;19.034;2022-09-01T00:46:12;4.32;;;3.15;;
41799;SDS011;27468;47.460;19.034;2022-09-01T00:48:40;5.38;;;3.70;;
41799;SDS011;27468;47.460;19.034;2022-09-01T00:51:06;4.95;;;3.33;;
41799;SDS011;27468;47.460;19.034;2022-09-01T00:53:35;4.57;;;3.03;;
41799;SDS011;27468;47.460;19.034;2022-09-01T00:56:02;4.60;;;3.67;;
41799;SDS011;27468;47.460;19.034;2022-09-01T00:58:29;5.47;;;3.90;;
41799;SDS011;27468;47.460;19.034;2022-09-01T01:00:56;4.57;;;3.45;;
41799;SDS011;27468;47.460;19.034;2022-09-01T01:03:21;5.63;;;3.58;;
41799;SDS011;27468;47.460;19.034;2022-09-01T01:05:52;6.18;;;3.50;;
41799;SDS011;27468;47.460;19.034;2022-09-01T01:08:21;5.65;;;3.50;;
41799;SDS011;27468;47.460;19.034;2022-09-01T01:10:58;5.30;;;3.58;;
41799;SDS011;27468;47.460;19.034;2022-09-01T01:13:28;4.20;;;3.38;;
41799;SDS011;27468;47.460;19.034;2022-09-01T01:15:56;6.47;;;3.72;;
41799;SDS011;27468;47.460;19.034;2022-09-01T01:18:23;4.15;;;3.53;;
41799;SDS011;27468;47.460;19.034;2022-09-01T01:21:03;3.92;;;3.42;;
41799;SDS011;27468;47.460;19.034;2022-09-01T01:23:56;5.82;;;3.72;;
41799;SDS011;27468;47.460;19.034;2022-09-01T01:26:44;4.93;;;3.40;;
41799;SDS011;27468;47.460;19.034;2022-09-01T01:29:11;4.95;;;4.03;;
41799;SDS011;27468;47.460;19.034;2022-09-01T01:31:37;4.68;;;3.83;;
41799;SDS011;27468;47.460;19.034;2022-09-01T01:34:02;6.13;;;3.85;;
41799;SDS011;27468;47.460;19.034;2022-09-01T01:36:32;7.15;;;4.10;;
41799;SDS011;27468;47.460;19.034;2022-09-01T01:39:05;5.55;;;3.83;;
41799;SDS011;27468;47.460;19.034;2022-09-01T01:41:39;4.95;;;3.35;;
41799;SDS011;27468;47.460;19.034;2022-09-01T01:44:08;4.78;;;3.30;;
41799;SDS011;27468;47.460;19.034;2022-09-01T01:46:37;5.55;;;3.42;;
41799;SDS011;27468;47.460;19.034;2022-09-01T01:49:07;5.32;;;3.45;;
41799;SDS011;27468;47.460;19.034;2022-09-01T01:51:34;5.30;;;3.28;;
41799;SDS011;27468;47.460;19.034;2022-09-01T01:54:01;5.45;;;3.42;;
41799;SDS011;27468;47.460;19.034;2022-09-01T01:56:30;4.45;;;3.17;;
41799;SDS011;27468;47.460;19.034;2022-09-01T01:58:57;6.15;;;3.45;;
41799;SDS011;27468;47.460;19.034;2022-09-01T02:01:26;4.13;;;2.97;;
41799;SDS011;27468;47.460;19.034;2022-09-01T02:03:54;3.72;;;2.80;;
41799;SDS011;27468;47.460;19.034;2022-09-01T02:06:21;4.40;;;3.42;;
41799;SDS011;27468;47.460;19.034;2022-09-01T02:08:52;4.22;;;3.38;;
41799;SDS011;27468;47.460;19.034;2022-09-01T02:11:23;4.20;;;2.83;;
41799;SDS011;27468;47.460;19.034;2022-09-01T02:13:51;5.90;;;3.65;;
41799;SDS011;27468;47.460;19.034;2022-09-01T02:16:20;3.67;;;2.55;;
41799;SDS011;27468;47.460;19.034;2022-09-01T02:18:47;4.75;;;3.30;;
41799;SDS011;27468;47.460;19.034;2022-09-01T02:21:15;4.97;;;3.00;;
41799;SDS011;27468;47.460;19.034;2022-09-01T02:24:05;3.95;;;3.20;;
41799;SDS011;27468;47.460;19.034;2022-09-01T02:26:36;3.35;;;2.80;;
41799;SDS011;27468;47.460;19.034;2022-09-01T02:29:06;3.95;;;2.88;;
41799;SDS011;27468;47.460;19.034;2022-09-01T02:31:42;4.53;;;2.97;;
41799;SDS011;27468;47.460;19.034;2022-09-01T02:34:08;3.25;;;2.72;;
41799;SDS011;27468;47.460;19.034;2022-09-01T02:36:38;3.75;;;2.50;;
41799;SDS011;27468;47.460;19.034;2022-09-01T02:39:15;3.50;;;2.70;;
41799;SDS011;27468;47.460;19.034;2022-09-01T02:41:47;3.72;;;2.65;;
41799;SDS011;27468;47.460;19.034;2022-09-01T02:44:13;2.58;;;2.28;;
41799;SDS011;27468;47.460;19.034;2022-09-01T02:46:40;3.10;;;2.53;;
41799;SDS011;27468;47.460;19.034;2022-09-01T02:49:25;4.40;;;2.47;;
41799;SDS011;27468;47.460;19.034;2022-09-01T02:51:54;4.53;;;2.83;;
41799;SDS011;27468;47.460;19.034;2022-09-01T02:54:23;4.30;;;3.03;;
41799;SDS011;27468;47.460;19.034;2022-09-01T02:56:50;3.55;;;2.70;;
41799;SDS011;27468;47.460;19.034;2022-09-01T02:59:18;5.60;;;3.00;;
41799;SDS011;27468;47.460;19.034;2022-09-01T03:01:47;3.72;;;3.03;;
41799;SDS011;27468;47.460;19.034;2022-09-01T03:04:14;4.82;;;2.70;;
41799;SDS011;27468;47.460;19.034;2022-09-01T03:06:39;4.15;;;2.63;;
41799;SDS011;27468;47.460;19.034;2022-09-01T03:09:07;4.32;;;2.58;;
41799;SDS011;27468;47.460;19.034;2022-09-01T03:11:36;3.53;;;2.33;;
41799;SDS011;27468;47.460;19.034;2022-09-01T03:14:04;4.47;;;2.88;;
41799;SDS011;27468;47.460;19.034;2022-09-01T03:16:30;3.45;;;2.30;;
41799;SDS011;27468;47.460;19.034;2022-09-01T03:18:57;5.05;;;2.75;;
41799;SDS011;27468;47.460;19.034;2022-09-01T03:21:23;3.50;;;2.60;;
41799;SDS011;27468;47.460;19.034;2022-09-01T03:23:50;3.42;;;2.75;;
41799;SDS011;27468;47.460;19.034;2022-09-01T03:26:17;2.90;;;2.03;;
41799;SDS011;27468;47.460;19.034;2022-09-01T03:28:46;2.88;;;2.13;;
41799;SDS011;27468;47.460;19.034;2022-09-01T03:31:13;4.65;;;2.60;;
41799;SDS011;27468;47.460;19.034;2022-09-01T03:33:39;3.47;;;2.22;;
41799;SDS011;27468;47.460;19.034;2022-09-01T03:36:05;3.40;;;2.08;;
41799;SDS011;27468;47.460;19.034;2022-09-01T03:38:30;3.10;;;2.22;;
41799;SDS011;27468;47.460;19.034;2022-09-01T03:41:04;2.88;;;2.10;;
41799;SDS011;27468;47.460;19.034;2022-09-01T03:43:32;2.83;;;1.98;;
41799;SDS011;27468;47.460;19.034;2022-09-01T03:45:58;3.60;;;1.98;;
41799;SDS011;27468;47.460;19.034;2022-09-01T03:48:25;2.55;;;1.80;;
41799;SDS011;27468;47.460;19.034;2022-09-01T03:50:53;2.60;;;1.70;;
41799;SDS011;27468;47.460;19.034;2022-09-01T03:53:21;3.15;;;1.95;;
41799;SDS011;27468;47.460;19.034;2022-09-01T03:55:51;2.73;;;2.03;;
41799;SDS011;27468;47.460;19.034;2022-09-01T03:58:18;3.03;;;2.05;;
41799;SDS011;27468;47.460;19.034;2022-09-01T04:00:45;4.53;;;2.10;;
41799;SDS011;27468;47.460;19.034;2022-09-01T04:03:13;3.70;;;2.40;;
41799;SDS011;27468;47.460;19.034;2022-09-01T04:05:42;2.65;;;2.00;;
41799;SDS011;27468;47.460;19.034;2022-09-01T04:08:09;3.45;;;2.30;;
41799;SDS011;27468;47.460;19.034;2022-09-01T04:10:46;2.78;;;2.20;;
41799;SDS011;27468;47.460;19.034;2022-09-01T04:13:17;2.75;;;2.00;;
41799;SDS011;27468;47.460;19.034;2022-09-01T04:15:46;3.45;;;2.10;;
41799;SDS011;27468;47.460;19.034;2022-09-01T04:18:12;3.67;;;2.70;;
41799;SDS011;27468;47.460;19.034;2022-09-01T04:20:45;2.85;;;2.20;;
41799;SDS011;27468;47.460;19.034;2022-09-01T04:23:46;4.03;;;2.65;;
41799;SDS011;27468;47.460;19.034;2022-09-01T04:26:07;4.07;;;2.47;;
41799;SDS011;27468;47.460;19.034;2022-09-01T04:28:38;3.20;;;2.58;;
41799;SDS011;27468;47.460;19.034;2022-09-01T04:31:06;3.80;;;2.53;;
41799;SDS011;27468;47.460;19.034;2022-09-01T04:33:34;4.13;;;2.65;;
41799;SDS011;27468;47.460;19.034;2022-09-01T04:36:03;4.55;;;2.80;;
41799;SDS011;27468;47.460;19.034;2022-09-01T04:38:30;4.88;;;3.08;;
41799;SDS011;27468;47.460;19.034;2022-09-01T04:41:02;4.90;;;3.30;;
41799;SDS011;27468;47.460;19.034;2022-09-01T04:43:31;4.85;;;3.40;;
41799;SDS011;27468;47.460;19.034;2022-09-01T04:45:58;4.30;;;2.90;;
41799;SDS011;27468;47.460;19.034;2022-09-01T04:48:24;5.15;;;3.35;;
41799;SDS011;27468;47.460;19.034;2022-09-01T04:50:49;4.43;;;3.25;;
41799;SDS011;27468;47.460;19.034;2022-09-01T04:53:16;3.63;;;3.08;;
41799;SDS011;27468;47.460;19.034;2022-09-01T04:55:43;4.72;;;2.85;;
41799;SDS011;27468;47.460;19.034;2022-09-01T04:58:12;4.82;;;3.28;;
41799;SDS011;27468;47.460;19.034;2022-09-01T05:00:42;4.47;;;3.28;;
41799;SDS011;27468;47.460;19.034;2022-09-01T05:03:09;4.78;;;3.25;;
41799;SDS011;27468;47.460;19.034;2022-09-01T05:05:37;4.28;;;3.22;;
41799;SDS011;27468;47.460;19.034;2022-09-01T05:08:06;7.97;;;3.63;;
41799;SDS011;27468;47.460;19.034;2022-09-01T05:10:37;4.68;;;3.17;;
41799;SDS011;27468;47.460;19.034;2022-09-01T05:13:05;6.20;;;2.90;;
41799;SDS011;27468;47.460;19.034;2022-09-01T05:15:34;5.70;;;3.03;;
41799;SDS011;27468;47.460;19.034;2022-09-01T05:18:02;4.03;;;2.75;;
41799;SDS011;27468;47.460;19.034;2022-09-01T05:20:37;5.57;;;3.30;;
41799;SDS011;27468;47.460;19.034;2022-09-01T05:23:06;4.35;;;3.10;;
41799;SDS011;27468;47.460;19.034;2022-09-01T05:25:36;4.63;;;3.05;;
41799;SDS011;27468;47.460;19.034;2022-09-01T05:28:03;5.70;;;3.63;;
41799;SDS011;27468;47.460;19.034;2022-09-01T05:30:29;5.28;;;3.38;;
41799;SDS011;27468;47.460;19.034;2022-09-01T05:32:54;4.72;;;3.70;;
41799;SDS011;27468;47.460;19.034;2022-09-01T05:35:20;4.80;;;3.60;;
41799;SDS011;27468;47.460;19.034;2022-09-01T05:37:48;7.43;;;4.13;;
41799;SDS011;27468;47.460;19.034;2022-09-01T05:40:15;5.95;;;3.97;;
41799;SDS011;27468;47.460;19.034;2022-09-01T05:42:42;7.28;;;4.40;;
41799;SDS011;27468;47.460;19.034;2022-09-01T05:45:08;5.45;;;4.47;;
41799;SDS011;27468;47.460;19.034;2022-09-01T05:47:36;5.50;;;3.92;;
41799;SDS011;27468;47.460;19.034;2022-09-01T05:50:03;3.85;;;3.30;;
41799;SDS011;27468;47.460;19.034;2022-09-01T05:52:32;7.15;;;3.83;;
41799;SDS011;27468;47.460;19.034;2022-09-01T05:55:00;5.63;;;3.65;;
41799;SDS011;27468;47.460;19.034;2022-09-01T05:57:25;6.43;;;3.53;;
41799;SDS011;27468;47.460;19.034;2022-09-01T05:59:51;7.80;;;3.92;;
41799;SDS011;27468;47.460;19.034;2022-09-01T06:02:18;5.90;;;3.90;;
41799;SDS011;27468;47.460;19.034;2022-09-01T06:04:45;4.40;;;3.72;;
41799;SDS011;27468;47.460;19.034;2022-09-01T06:07:12;5.53;;;3.63;;
41799;SDS011;27468;47.460;19.034;2022-09-01T06:09:45;4.60;;;3.40;;
41799;SDS011;27468;47.460;19.034;2022-09-01T06:12:12;5.78;;;4.10;;
41799;SDS011;27468;47.460;19.034;2022-09-01T06:14:42;6.88;;;4.30;;
41799;SDS011;27468;47.460;19.034;2022-09-01T06:17:09;5.43;;;3.75;;
41799;SDS011;27468;47.460;19.034;2022-09-01T06:19:36;4.45;;;3.85;;
41799;SDS011;27468;47.460;19.034;2022-09-01T06:22:04;5.13;;;3.47;;
41799;SDS011;27468;47.460;19.034;2022-09-01T06:24:29;5.20;;;3.17;;
41799;SDS011;27468;47.460;19.034;2022-09-01T06:26:55;5.15;;;3.30;;
41799;SDS011;27468;47.460;19.034;2022-09-01T06:29:20;4.53;;;3.20;;
41799;SDS011;27468;47.460;19.034;2022-09-01T06:31:46;4.93;;;3.40;;
41799;SDS011;27468;47.460;19.034;2022-09-01T06:34:17;5.72;;;3.05;;
41799;SDS011;27468;47.460;19.034;2022-09-01T06:36:43;4.53;;;3.20;;
41799;SDS011;27468;47.460;19.034;2022-09-01T06:39:11;3.10;;;2.75;;
41799;SDS011;27468;47.460;19.034;2022-09-01T06:41:44;6.07;;;3.10;;
41799;SDS011;27468;47.460;19.034;2022-09-01T06:44:12;6.18;;;3.08;;
41799;SDS011;27468;47.460;19.034;2022-09-01T06:46:38;5.28;;;3.33;;
41799;SDS011;27468;47.460;19.034;2022-09-01T06:49:04;5.68;;;3.63;;
41799;SDS011;27468;47.460;19.034;2022-09-01T06:51:30;5.40;;;3.13;;
41799;SDS011;27468;47.460;19.034;2022-09-01T06:53:56;3.47;;;2.60;;
41799;SDS011;27468;47.460;19.034;2022-09-01T06:56:24;4.38;;;2.70;;
41799;SDS011;27468;47.460;19.034;2022-09-01T06:58:54;3.33;;;2.40;;
41799;SDS011;27468;47.460;19.034;2022-09-01T07:01:20;4.45;;;2.80;;
41799;SDS011;27468;47.460;19.034;2022-09-01T07:03:47;4.05;;;2.92;;
41799;SDS011;27468;47.460;19.034;2022-09-01T07:06:18;5.63;;;3.27;;
41799;SDS011;27468;47.460;19.034;2022-09-01T07:08:51;4.38;;;3.00;;
41799;SDS011;27468;47.460;19.034;2022-09-01T07:11:22;4.22;;;3.05;;
41799;SDS011;27468;47.460;19.034;2022-09-01T07:13:53;5.68;;;2.78;;
41799;SDS011;27468;47.460;19.034;2022-09-01T07:16:21;2.80;;;2.50;;
41799;SDS011;27468;47.460;19.034;2022-09-01T07:18:49;7.18;;;2.78;;
41799;SDS011;27468;47.460;19.034;2022-09-01T07:21:16;4.00;;;2.75;;
41799;SDS011;27468;47.460;19.034;2022-09-01T07:23:42;4.45;;;2.40;;
41799;SDS011;27468;47.460;19.034;2022-09-01T07:26:08;4.75;;;2.50;;
41799;SDS011;27468;47.460;19.034;2022-09-01T07:28:34;4.38;;;2.42;;
41799;SDS011;27468;47.460;19.034;2022-09-01T07:31:00;3.60;;;2.50;;
41799;SDS011;27468;47.460;19.034;2022-09-01T07:33:29;3.83;;;2.58;;
41799;SDS011;27468;47.460;19.034;2022-09-01T07:35:56;4.50;;;2.60;;
41799;SDS011;27468;47.460;19.034;2022-09-01T07:38:24;3.75;;;2.50;;
41799;SDS011;27468;47.460;19.034;2022-09-01T07:40:50;3.80;;;2.20;;
41799;SDS011;27468;47.460;19.034;2022-09-01T07:45:47;3.15;;;2.15;;
41799;SDS011;27468;47.460;19.034;2022-09-01T07:48:15;3.03;;;1.80;;
41799;SDS011;27468;47.460;19.034;2022-09-01T07:50:44;4.57;;;2.53;;
41799;SDS011;27468;47.460;19.034;2022-09-01T07:53:23;2.92;;;2.38;;
41799;SDS011;27468;47.460;19.034;2022-09-01T07:55:51;4.70;;;2.38;;
41799;SDS011;27468;47.460;19.034;2022-09-01T07:58:22;4.35;;;2.25;;
41799;SDS011;27468;47.460;19.034;2022-09-01T08:00:50;3.10;;;2.38;;
41799;SDS011;27468;47.460;19.034;2022-09-01T08:03:17;3.17;;;2.40;;
41799;SDS011;27468;47.460;19.034;2022-09-01T08:05:45;3.22;;;2.38;;
41799;SDS011;27468;47.460;19.034;2022-09-01T08:08:12;3.90;;;2.28;;
41799;SDS011;27468;47.460;19.034;2022-09-01T08:10:40;4.88;;;2.13;;
41799;SDS011;27468;47.460;19.034;2022-09-01T08:13:07;4.65;;;2.60;;
41799;SDS011;27468;47.460;19.034;2022-09-01T08:15:33;4.75;;;2.28;;
41799;SDS011;27468;47.460;19.034;2022-09-01T08:17:59;4.70;;;2.28;;
41799;SDS011;27468;47.460;19.034;2022-09-01T08:20:25;3.25;;;2.08;;
41799;SDS011;27468;47.460;19.034;2022-09-01T08:22:50;3.20;;;2.17;;
41799;SDS011;27468;47.460;19.034;2022-09-01T08:25:16;3.67;;;2.00;;
41799;SDS011;27468;47.460;19.034;2022-09-01T08:27:42;3.00;;;1.83;;
41799;SDS011;27468;47.460;19.034;2022-09-01T08:30:09;4.22;;;1.67;;
41799;SDS011;27468;47.460;19.034;2022-09-01T08:32:37;4.25;;;1.52;;
41799;SDS011;27468;47.460;19.034;2022-09-01T08:35:06;2.13;;;1.52;;
41799;SDS011;27468;47.460;19.034;2022-09-01T08:37:33;3.78;;;1.77;;
41799;SDS011;27468;47.460;19.034;2022-09-01T08:39:58;3.22;;;1.65;;
41799;SDS011;27468;47.460;19.034;2022-09-01T08:47:27;2.33;;;1.60;;
41799;SDS011;27468;47.460;19.034;2022-09-01T08:49:53;3.97;;;1.88;;
41799;SDS011;27468;47.460;19.034;2022-09-01T08:54:52;3.78;;;1.52;;
41799;SDS011;27468;47.460;19.034;2022-09-01T08:57:30;4.72;;;1.90;;
41799;SDS011;27468;47.460;19.034;2022-09-01T08:59:58;3.22;;;1.70;;
41799;SDS011;27468;47.460;19.034;2022-09-01T09:03:25;3.22;;;1.80;;
41799;SDS011;27468;47.460;19.034;2022-09-01T09:17:00;3.53;;;1.40;;
41799;SDS011;27468;47.460;19.034;2022-09-01T09:19:49;3.55;;;1.40;;
41799;SDS011;27468;47.460;19.034;2022-09-01T09:22:15;2.92;;;1.77;;
41799;SDS011;27468;47.460;19.034;2022-09-01T09:24:50;3.00;;;1.40;;
41799;SDS011;27468;47.460;19.034;2022-09-01T09:27:39;3.38;;;1.70;;
41799;SDS011;27468;47.460;19.034;2022-09-01T09:30:08;2.70;;;1.30;;
41799;SDS011;27468;47.460;19.034;2022-09-01T09:32:47;4.03;;;1.50;;
41799;SDS011;27468;47.460;19.034;2022-09-01T09:35:21;1.92;;;1.30;;
41799;SDS011;27468;47.460;19.034;2022-09-01T09:40:35;2.90;;;1.48;;
41799;SDS011;27468;47.460;19.034;2022-09-01T09:43:05;2.53;;;1.50;;
41799;SDS011;27468;47.460;19.034;2022-09-01T09:45:32;2.20;;;1.48;;
41799;SDS011;27468;47.460;19.034;2022-09-01T09:48:05;2.80;;;1.60;;
41799;SDS011;27468;47.460;19.034;2022-09-01T09:50:42;2.55;;;1.60;;
41799;SDS011;27468;47.460;19.034;2022-09-01T09:53:24;2.33;;;1.45;;
41799;SDS011;27468;47.460;19.034;2022-09-01T09:55:56;2.70;;;1.50;;
41799;SDS011;27468;47.460;19.034;2022-09-01T09:58:42;3.58;;;1.45;;
41799;SDS011;27468;47.460;19.034;2022-09-01T10:03:48;3.85;;;1.70;;
41799;SDS011;27468;47.460;19.034;2022-09-01T10:06:36;3.03;;;2.00;;
41799;SDS011;27468;47.460;19.034;2022-09-01T10:09:06;3.97;;;1.50;;
41799;SDS011;27468;47.460;19.034;2022-09-01T10:11:42;2.70;;;1.20;;
41799;SDS011;27468;47.460;19.034;2022-09-01T10:14:15;2.58;;;1.60;;
41799;SDS011;27468;47.460;19.034;2022-09-01T10:16:43;1.77;;;1.20;;
41799;SDS011;27468;47.460;19.034;2022-09-01T10:19:19;2.72;;;1.50;;
41799;SDS011;27468;47.460;19.034;2022-09-01T10:21:45;1.73;;;1.20;;
41799;SDS011;27468;47.460;19.034;2022-09-01T10:27:07;3.00;;;1.45;;
41799;SDS011;27468;47.460;19.034;2022-09-01T10:29:41;1.88;;;1.38;;
41799;SDS011;27468;47.460;19.034;2022-09-01T10:32:11;3.47;;;1.40;;
41799;SDS011;27468;47.460;19.034;2022-09-01T10:34:43;2.47;;;1.25;;
41799;SDS011;27468;47.460;19.034;2022-09-01T10:37:10;2.88;;;1.23;;
41799;SDS011;27468;47.460;19.034;2022-09-01T10:42:34;2.00;;;1.30;;
41799;SDS011;27468;47.460;19.034;2022-09-01T10:45:00;2.92;;;1.27;;
41799;SDS011;27468;47.460;19.034;2022-09-01T10:47:28;1.80;;;1.20;;
41799;SDS011;27468;47.460;19.034;2022-09-01T10:50:02;2.65;;;1.33;;
41799;SDS011;27468;47.460;19.034;2022-09-01T10:55:16;2.63;;;1.20;;
41799;SDS011;27468;47.460;19.034;2022-09-01T11:03:15;5.93;;;2.72;;
41799;SDS011;27468;47.460;19.034;2022-09-01T11:10:56;1.85;;;1.13;;
41799;SDS011;27468;47.460;19.034;2022-09-01T11:16:24;2.40;;;1.30;;
41799;SDS011;27468;47.460;19.034;2022-09-01T11:22:02;1.60;;;1.15;;
41799;SDS011;27468;47.460;19.034;2022-09-01T11:27:09;2.97;;;1.30;;
41799;SDS011;27468;47.460;19.034;2022-09-01T11:29:50;1.95;;;0.90;;
41799;SDS011;27468;47.460;19.034;2022-09-01T11:32:16;1.85;;;1.20;;
41799;SDS011;27468;47.460;19.034;2022-09-01T11:34:43;3.10;;;1.20;;
41799;SDS011;27468;47.460;19.034;2022-09-01T11:37:14;2.10;;;1.02;;
41799;SDS011;27468;47.460;19.034;2022-09-01T11:39:51;1.42;;;0.90;;
41799;SDS011;27468;47.460;19.034;2022-09-01T11:45:17;4.82;;;1.40;;
41799;SDS011;27468;47.460;19.034;2022-09-01T11:47:46;2.20;;;1.10;;
41799;SDS011;27468;47.460;19.034;2022-09-01T11:50:23;1.60;;;0.95;;
41799;SDS011;27468;47.460;19.034;2022-09-01T11:53:13;1.58;;;1.10;;
41799;SDS011;27468;47.460;19.034;2022-09-01T11:55:49;2.20;;;1.10;;
41799;SDS011;27468;47.460;19.034;2022-09-01T12:00:56;2.53;;;1.00;;
41799;SDS011;27468;47.460;19.034;2022-09-01T12:03:35;2.70;;;1.27;;
41799;SDS011;27468;47.460;19.034;2022-09-01T12:06:02;2.33;;;0.90;;
41799;SDS011;27468;47.460;19.034;2022-09-01T12:08:34;1.98;;;1.20;;
41799;SDS011;27468;47.460;19.034;2022-09-01T12:11:09;1.70;;;1.10;;
41799;SDS011;27468;47.460;19.034;2022-09-01T12:13:37;2.58;;;1.13;;
41799;SDS011;27468;47.460;19.034;2022-09-01T12:16:07;3.13;;;1.10;;
41799;SDS011;27468;47.460;19.034;2022-09-01T12:18:35;2.25;;;1.17;;
41799;SDS011;27468;47.460;19.034;2022-09-01T12:21:15;1.10;;;0.80;;
41799;SDS011;27468;47.460;19.034;2022-09-01T12:23:44;1.15;;;1.00;;
41799;SDS011;27468;47.460;19.034;2022-09-01T12:26:11;1.70;;;1.10;;
41799;SDS011;27468;47.460;19.034;2022-09-01T12:28:38;3.35;;;1.13;;
41799;SDS011;27468;47.460;19.034;2022-09-01T12:31:07;1.75;;;0.90;;
41799;SDS011;27468;47.460;19.034;2022-09-01T12:33:38;4.15;;;1.10;;
41799;SDS011;27468;47.460;19.034;2022-09-01T12:38:55;1.70;;;0.80;;
41799;SDS011;27468;47.460;19.034;2022-09-01T12:41:41;1.92;;;1.00;;
41799;SDS011;27468;47.460;19.034;2022-09-01T12:47:00;1.13;;;0.80;;
41799;SDS011;27468;47.460;19.034;2022-09-01T12:49:44;2.10;;;1.08;;
41799;SDS011;27468;47.460;19.034;2022-09-01T12:52:17;1.00;;;0.90;;
41799;SDS011;27468;47.460;19.034;2022-09-01T12:54:51;1.50;;;0.90;;
41799;SDS011;27468;47.460;19.034;2022-09-01T12:57:27;2.03;;;1.15;;
41799;SDS011;27468;47.460;19.034;2022-09-01T13:02:37;1.48;;;1.00;;
41799;SDS011;27468;47.460;19.034;2022-09-01T13:07:43;1.85;;;1.15;;
41799;SDS011;27468;47.460;19.034;2022-09-01T13:10:08;2.17;;;1.00;;
41799;SDS011;27468;47.460;19.034;2022-09-01T13:12:37;1.45;;;0.93;;
41799;SDS011;27468;47.460;19.034;2022-09-01T13:15:06;2.03;;;0.90;;
41799;SDS011;27468;47.460;19.034;2022-09-01T13:17:32;1.67;;;1.00;;
41799;SDS011;27468;47.460;19.034;2022-09-01T13:19:58;2.40;;;1.00;;
41799;SDS011;27468;47.460;19.034;2022-09-01T13:22:23;2.15;;;1.10;;
41799;SDS011;27468;47.460;19.034;2022-09-01T13:24:49;1.25;;;1.00;;
41799;SDS011;27468;47.460;19.034;2022-09-01T13:27:14;1.20;;;1.00;;
41799;SDS011;27468;47.460;19.034;2022-09-01T13:29:40;3.42;;;1.00;;
41799;SDS011;27468;47.460;19.034;2022-09-01T13:32:05;1.42;;;0.98;;
41799;SDS011;27468;47.460;19.034;2022-09-01T13:34:33;1.20;;;1.00;;
41799;SDS011;27468;47.460;19.034;2022-09-01T13:36:59;1.60;;;1.05;;
41799;SDS011;27468;47.460;19.034;2022-09-01T13:39:24;1.50;;;1.10;;
41799;SDS011;27468;47.460;19.034;2022-09-01T13:41:50;1.83;;;1.00;;
41799;SDS011;27468;47.460;19.034;2022-09-01T13:44:16;2.13;;;1.00;;
41799;SDS011;27468;47.460;19.034;2022-09-01T13:46:42;1.63;;;1.00;;
41799;SDS011;27468;47.460;19.034;2022-09-01T13:49:09;2.15;;;1.00;;
41799;SDS011;27468;47.460;19.034;2022-09-01T13:51:34;0.95;;;0.80;;
41799;SDS011;27468;47.460;19.034;2022-09-01T13:54:01;1.10;;;0.90;;
41799;SDS011;27468;47.460;19.034;2022-09-01T13:56:27;2.17;;;1.00;;
41799;SDS011;27468;47.460;19.034;2022-09-01T13:58:52;1.83;;;1.20;;
41799;SDS011;27468;47.460;19.034;2022-09-01T14:01:17;1.08;;;0.85;;
41799;SDS011;27468;47.460;19.034;2022-09-01T14:03:43;0.85;;;0.75;;
41799;SDS011;27468;47.460;19.034;2022-09-01T14:06:09;3.58;;;1.02;;
41799;SDS011;27468;47.460;19.034;2022-09-01T14:08:34;1.52;;;1.00;;
41799;SDS011;27468;47.460;19.034;2022-09-01T14:11:00;1.98;;;0.98;;
41799;SDS011;27468;47.460;19.034;2022-09-01T14:13:25;2.28;;;0.80;;
41799;SDS011;27468;47.460;19.034;2022-09-01T14:15:52;0.80;;;0.80;;
41799;SDS011;27468;47.460;19.034;2022-09-01T14:18:18;1.83;;;0.85;;
41799;SDS011;27468;47.460;19.034;2022-09-01T14:20:46;2.17;;;0.70;;
41799;SDS011;27468;47.460;19.034;2022-09-01T14:23:13;1.20;;;0.90;;
41799;SDS011;27468;47.460;19.034;2022-09-01T14:25:47;1.77;;;0.80;;
41799;SDS011;27468;47.460;19.034;2022-09-01T14:28:14;1.33;;;0.70;;
41799;SDS011;27468;47.460;19.034;2022-09-01T14:30:41;1.73;;;1.15;;
41799;SDS011;27468;47.460;19.034;2022-09-01T14:33:07;2.20;;;1.08;;
41799;SDS011;27468;47.460;19.034;2022-09-01T14:35:35;1.48;;;0.75;;
41799;SDS011;27468;47.460;19.034;2022-09-01T14:38:03;1.90;;;1.02;;
41799;SDS011;27468;47.460;19.034;2022-09-01T14:40:32;2.83;;;1.05;;
41799;SDS011;27468;47.460;19.034;2022-09-01T14:42:57;1.45;;;0.80;;
41799;SDS011;27468;47.460;19.034;2022-09-01T14:45:24;1.48;;;1.00;;
41799;SDS011;27468;47.460;19.034;2022-09-01T14:47:53;3.72;;;0.90;;
41799;SDS011;27468;47.460;19.034;2022-09-01T14:50:22;1.10;;;0.70;;
41799;SDS011;27468;47.460;19.034;2022-09-01T14:52:49;1.30;;;0.90;;
41799;SDS011;27468;47.460;19.034;2022-09-01T14:55:19;1.67;;;0.90;;
41799;SDS011;27468;47.460;19.034;2022-09-01T14:57:46;1.27;;;0.85;;
41799;SDS011;27468;47.460;19.034;2022-09-01T15:00:12;1.20;;;0.80;;
41799;SDS011;27468;47.460;19.034;2022-09-01T15:02:38;1.02;;;0.80;;
41799;SDS011;27468;47.460;19.034;2022-09-01T15:05:05;1.27;;;0.80;;
41799;SDS011;27468;47.460;19.034;2022-09-01T15:07:31;2.80;;;0.98;;
41799;SDS011;27468;47.460;19.034;2022-09-01T15:09:56;1.20;;;0.77;;
41799;SDS011;27468;47.460;19.034;2022-09-01T15:12:23;1.92;;;1.00;;
41799;SDS011;27468;47.460;19.034;2022-09-01T15:14:49;3.42;;;1.20;;
41799;SDS011;27468;47.460;19.034;2022-09-01T15:17:15;2.22;;;0.70;;
41799;SDS011;27468;47.460;19.034;2022-09-01T15:19:41;2.60;;;1.73;;
41799;SDS011;27468;47.460;19.034;2022-09-01T15:22:07;2.70;;;0.93;;
41799;SDS011;27468;47.460;19.034;2022-09-01T15:24:35;2.67;;;0.82;;
41799;SDS011;27468;47.460;19.034;2022-09-01T15:27:01;1.35;;;0.80;;
41799;SDS011;27468;47.460;19.034;2022-09-01T15:29:26;1.33;;;0.77;;
41799;SDS011;27468;47.460;19.034;2022-09-01T15:31:58;1.27;;;0.88;;
41799;SDS011;27468;47.460;19.034;2022-09-01T15:34:27;0.80;;;0.80;;
41799;SDS011;27468;47.460;19.034;2022-09-01T15:36:53;1.77;;;0.88;;
41799;SDS011;27468;47.460;19.034;2022-09-01T15:39:18;10.13;;;7.90;;
41799;SDS011;27468;47.460;19.034;2022-09-01T15:41:43;2.33;;;1.63;;
41799;SDS011;27468;47.460;19.034;2022-09-01T15:44:09;1.60;;;0.70;;
41799;SDS011;27468;47.460;19.034;2022-09-01T15:46:35;1.77;;;0.73;;
41799;SDS011;27468;47.460;19.034;2022-09-01T15:49:04;1.00;;;0.65;;
41799;SDS011;27468;47.460;19.034;2022-09-01T15:51:38;1.55;;;1.00;;
41799;SDS011;27468;47.460;19.034;2022-09-01T15:54:17;2.33;;;0.70;;
41799;SDS011;27468;47.460;19.034;2022-09-01T15:56:44;1.50;;;0.80;;